ASN logo
Last updated: 2 December 2021
Statuts:
Date:lundi 16 septembre 2019
Heure:12:26
Type/Sous-type:Silhouette image of generic C208 model; specific model in this crash may look slightly different
Cessna 208B Grand Caravan
Compagnie:TwoFlex
Immatriculation: PT-MHC
Numéro de série: 208B0543
Année de Fabrication: 1996
Moteurs: 1 Pratt & Whitney Canada PT6A-114A
Equipage:victimes: 0 / à bord: 2
Passagers:victimes: 0 / à bord: 8
Total:victimes: 0 / à bord: 10
Dégats de l'appareil: Perte Totale
Conséquences: Written off (damaged beyond repair)
Lieu de l'accident:près de Manaus-Eduardo Gomes International Airport, AM (MAO) (   Brésil)
Phase de vol: Au décollage (TOF)
Nature:Passagers
Aéroport de départ:Manaus-Eduardo Gomes International Airport, AM (MAO/SBEG), Brésil
Aéroport de destination:Maués Airport, AM (MBZ/SWMW), Brésil
Détails:
A Cessna 208B Grand Caravan, registration PT-MHC, crashed in a wooded area on takeoff from Manaus-Eduardo Gomes International Airport in Brazil. All ten on board survived the accident.
Thunderstorm were present in the area around the time of departure.

Sources:
» g1.globo.com
» amazonas1.com.br

METAR Weather report:
16:00 UTC / 12:00 local time:
SBEG 161600Z 21009KT 8000 -SHRA SCT020 FEW025TCU SCT100 31/24 Q1011

16:06 UTC / 12:06 local time:
SBEG 161606Z 14014KT 2000 SHRA SCT020 FEW025TCU SCT100 25/19 Q1012

16:24 UTC / 12:24 local time:
SBEG 161624Z 27016KT 3000 TSRA BKN014 FEW025CB SCT100 22/19 Q1012

16:34 UTC / 12:34 local time:
SBEG 161634Z 27017G46KT 4000 1500W TSRA BKN012 FEW025CB SCT100 20/18 Q1011

17:00 UTC / 13:00 local time:
SBEG 161700Z 31008KT 4000 -TSRA SCT010 BKN020 FEW025CB 21/20 Q1011 RETSRA


Photos

photo of Cessna-208B-Grand-Caravan-PT-MHC
accident date: 16-09-2019
type: Cessna 208B Grand Caravan
registration: PT-MHC
 

Video, social media

Plan
Ce plan montre l'aéroport de départ ainsi que la supposée destination du vol. La ligne fixe reliant les deux aéroports n'est pas le plan de vol exact.
La distance entre Manaus-Eduardo Gomes International Airport, AM et Maués Airport, AM est de 260 km (162 miles).
Accident location: Approximate; accuracy within a few kilometers.

Les informations ci-dessus ne représentent pas l'opinion de la 'Flight Safety Foundation' ou de 'Aviation Safety Network' sur les causes de l'accident. Ces informations prélimimaires sont basées sur les faits tel qu'ils sont connus à ce jour.
languages: languages

Share